KROC/ROC METAR and TAF weather

Enter ICAO airport designator
Station Type Date Time Source
KROC METAR 2019/06/18 11:54 UTC NOAA

KROC 181154Z 03006KT 10SM SCT032 BKN042 OVC060 17/11 A2996 RMK AO2 SLP146 T01670111 10178 20156 53004


Station Type Date Time Source
KROC Decoded METAR 2019/06/18 11:54 UTC NOAA

GREATER ROCHESTER INTERNATIONAL , NY, United States (KROC) 43-07N 077-41W 178M
Jun 18, 2019 - 07:54 AM EDT / 2019.06.18 1154 UTC
Wind: from the NNE (030 degrees) at 7 MPH (6 KT):0
Visibility: 10 mile(s):0
Sky conditions: overcast
Temperature: 62.1 F (16.7 C)
Dew Point: 52.0 F (11.1 C)
Relative Humidity: 69%
Pressure (altimeter): 29.96 in. Hg (1014 hPa)
Pressure tendency: 0.01 inches (0.4 hPa) higher than three hours ago
ob: KROC 181154Z 03006KT 10SM SCT032 BKN042 OVC060 17/11 A2996 RMK AO2 SLP146 T01670111 10178 20156 53004
cycle: 12

Station Type Date Time Source
KROC TAF 2019/06/18 12:22 UTC NOAA

TAF KROC 181120Z 1812/1912 03006KT P6SM OVC035
FM181300 03007KT P6SM BKN050
FM181400 03007KT P6SM BKN070
FM181600 03006KT P6SM SCT070
FM190300 00000KT P6SM FEW120

Example: see airport list